Archival Weather

Chicago O'Hare International

Chicago, Illinois (KORD)

Report from: Monday, December 12, 2022 11:51 PM CST
Current time: Friday, June 21, 2024 3:29 AM CDT

Current weather – Weather history – Daily summaries
Weather forecast

Temperature2.8°C (37.0°F)
Wind chill-1.5°C (29.3°F)
Dew point-2.8°C (27.0°F)
Winds 10 kts (5.1 m/s, 11.5 mph) Southeast (130°)
Visibility10 mi. (16.1 km)
Clouds Ceiling: Overcast 2,500 ft. (762 m)
Altimeter30.27 in.Hg (1025 mB)
Relative humidity67 %
Density altitude-1,816 ft. (-554 m)
Sea-level pressure102.5 kPa (1025 mB, 30.28 in.Hg)
Max temp last 6 hours3.9°C (39.0°F)
Min temp last 6 hours2.8°C (37.0°F)
Max temp last 24 hours5.6°C (42.1°F)
Min temp last 24 hours1.7°C (35.1°F)
Remarks Automated weather observing station with precipitation discriminator
Pressure falling more slowly
Flight conditions Marginal Visual Meteorological Conditions
Raw dataKORD 130551Z 13010KT 10SM OVC025 03/M03 A3027 RMK AO2 SLP254 T00281028 10039 20028 400560017 56006
An error has occurred. This application may no longer respond until reloaded. Reload 🗙